Time;durP1;ratioP1;P1;durP2;ratioP2;P2;SDS_P1;SDS_P2;PMS_P1;PMS_P2;Temp;Humidity;BMP_temperature;BMP_pressure;BME280_temperature;BME280_humidity;BME280_pressure;Samples;Min_cycle;Max_cycle;Signal;HPM_P1;HPM_P2
2021/03/26 00:01:45;;;;;;;;;;;10.70;65.60;;;;;;5030941;28;20049;-79
2021/03/26 00:04:14;;;;;;;15.27;6.03;;;10.60;65.50;;;;;;5031306;28;19925;-77
2021/03/26 00:06:43;;;;;;;10.88;6.90;;;10.70;65.50;;;;;;5035025;28;20405;-80
2021/03/26 00:09:15;;;;;;;17.45;6.28;;;10.80;65.30;;;;;;5030405;28;20087;-78
2021/03/26 00:11:41;;;;;;;24.05;6.78;;;10.70;65.40;;;;;;5042032;28;20049;-78
2021/03/26 00:14:09;;;;;;;18.05;7.18;;;10.70;65.40;;;;;;5033092;28;20049;-79
2021/03/26 00:16:35;;;;;;;20.58;7.28;;;10.70;65.50;;;;;;5037787;28;20087;-76
2021/03/26 00:19:06;;;;;;;17.13;6.78;;;10.70;65.50;;;;;;5038491;28;20424;-79
2021/03/26 00:21:33;;;;;;;16.55;6.72;;;10.70;65.60;;;;;;5036963;28;20099;-80
2021/03/26 00:23:59;;;;;;;13.15;6.70;;;10.70;65.60;;;;;;5045458;28;20063;-79
2021/03/26 00:26:26;;;;;;;16.00;6.03;;;10.60;65.70;;;;;;5042579;28;20049;-79
2021/03/26 00:28:58;;;;;;;14.40;6.13;;;10.60;65.80;;;;;;5045580;28;20056;-80
2021/03/26 00:31:25;;;;;;;18.17;6.50;;;10.60;65.70;;;;;;5041627;28;20049;-80
2021/03/26 00:33:51;;;;;;;17.55;5.50;;;10.50;65.80;;;;;;5045703;28;20460;-78
2021/03/26 00:36:18;;;;;;;11.73;5.38;;;10.50;65.90;;;;;;5041343;28;20103;-80
2021/03/26 00:38:44;;;;;;;14.50;6.35;;;10.50;66.10;;;;;;5040594;28;20079;-81
2021/03/26 00:41:11;;;;;;;11.25;5.18;;;10.40;66.20;;;;;;5045041;28;20046;-81
2021/03/26 00:43:38;;;;;;;12.82;5.93;;;10.40;66.30;;;;;;5044710;28;20045;-80
2021/03/26 00:46:04;;;;;;;12.77;5.30;;;10.50;66.30;;;;;;5043717;28;20049;-80
2021/03/26 00:48:31;;;;;;;16.48;5.35;;;10.40;66.40;;;;;;5054202;28;20503;-80
2021/03/26 00:51:01;;;;;;;13.57;5.65;;;10.40;66.70;;;;;;5048478;28;20057;-80
2021/03/26 00:53:31;;;;;;;11.23;5.00;;;10.40;66.80;;;;;;5056032;28;20447;-79
2021/03/26 00:55:58;;;;;;;13.65;5.68;;;10.40;66.80;;;;;;5043373;28;20144;-77
2021/03/26 00:58:25;;;;;;;10.68;6.30;;;10.30;66.90;;;;;;5046808;28;20056;-80
2021/03/26 01:00:52;;;;;;;13.38;6.63;;;10.40;67.40;;;;;;5044826;28;20107;-80
2021/03/26 01:03:21;;;;;;;12.63;5.78;;;10.40;67.40;;;;;;5049848;28;20095;-81
2021/03/26 01:05:54;;;;;;;18.85;5.65;;;10.30;67.40;;;;;;5044991;28;20084;-81
2021/03/26 01:08:23;;;;;;;14.13;6.45;;;10.30;67.60;;;;;;5040595;28;20057;-80
2021/03/26 01:10:54;;;;;;;16.60;6.82;;;10.30;67.70;;;;;;5053730;28;20053;-81
2021/03/26 01:13:22;;;;;;;16.92;6.40;;;10.30;67.80;;;;;;5041177;28;20068;-80
2021/03/26 01:15:49;;;;;;;15.95;6.70;;;10.30;67.80;;;;;;5045424;28;20069;-81
2021/03/26 01:18:40;;;;;;;12.73;5.95;;;10.20;68.10;;;;;;5045502;28;20063;-80
2021/03/26 01:21:08;;;;;;;18.08;6.82;;;10.10;68.40;;;;;;5038827;28;20107;-81
2021/03/26 01:23:34;;;;;;;13.18;6.43;;;10.10;68.80;;;;;;5048111;28;20476;-81
2021/03/26 01:26:01;;;;;;;20.10;7.00;;;10.10;69.00;;;;;;5044912;28;20059;-80
2021/03/26 01:28:29;;;;;;;17.55;6.90;;;10.10;68.90;;;;;;5048116;28;20079;-80
2021/03/26 01:30:57;;;;;;;20.67;6.68;;;10.10;69.00;;;;;;5047281;28;20057;-80
2021/03/26 01:33:25;;;;;;;15.05;6.93;;;10.10;68.80;;;;;;5049176;28;20055;-80
2021/03/26 01:35:53;;;;;;;19.42;7.00;;;10.10;69.00;;;;;;5036988;28;20041;-80
2021/03/26 01:38:19;;;;;;;14.80;6.18;;;10.10;69.10;;;;;;5046767;28;20049;-80
2021/03/26 01:40:59;;;;;;;18.08;7.10;;;10.10;69.20;;;;;;5041138;28;20483;-80
2021/03/26 01:43:31;;;;;;;13.65;6.70;;;10.10;69.10;;;;;;5036214;28;20064;-81
2021/03/26 01:45:59;;;;;;;13.73;6.43;;;10.10;69.10;;;;;;5048172;28;20053;-79
2021/03/26 01:48:32;;;;;;;21.70;7.50;;;10.10;69.10;;;;;;5040841;28;20080;-79
2021/03/26 01:51:03;;;;;;;14.57;6.85;;;10.10;69.30;;;;;;5030331;28;20085;-80
2021/03/26 01:53:30;;;;;;;13.43;6.60;;;10.00;69.70;;;;;;5046180;28;20110;-79
2021/03/26 01:56:01;;;;;;;13.05;6.03;;;9.90;71.00;;;;;;5040053;28;20045;-81
2021/03/26 01:58:30;;;;;;;16.92;7.10;;;9.90;71.20;;;;;;5030289;28;20037;-81
2021/03/26 02:01:01;;;;;;;15.45;7.53;;;9.90;71.30;;;;;;5040393;28;20086;-80
2021/03/26 02:03:38;;;;;;;28.58;11.02;;;9.80;71.60;;;;;;5048844;28;20445;-80
2021/03/26 02:06:17;;;;;;;22.70;9.18;;;9.90;71.30;;;;;;5038645;28;20057;-80
2021/03/26 02:08:44;;;;;;;16.20;7.00;;;9.60;71.70;;;;;;5040702;28;20047;-80
2021/03/26 02:11:26;;;;;;;16.65;7.88;;;9.30;72.60;;;;;;5038380;28;20107;-80
2021/03/26 02:13:53;;;;;;;14.95;6.22;;;9.10;73.40;;;;;;5076040;28;20526;-80
2021/03/26 02:16:22;;;;;;;17.67;6.90;;;9.20;73.60;;;;;;5044283;28;20439;-80
2021/03/26 02:18:48;;;;;;;16.40;6.40;;;9.20;73.40;;;;;;5043799;28;20107;-80
2021/03/26 02:21:30;;;;;;;20.17;7.70;;;8.90;74.50;;;;;;5042352;28;20076;-79
2021/03/26 02:24:00;;;;;;;16.27;7.03;;;8.70;75.10;;;;;;5045515;28;20079;-79
2021/03/26 02:26:32;;;;;;;16.92;7.30;;;8.60;76.10;;;;;;5044496;28;20060;-79
2021/03/26 02:28:58;;;;;;;14.07;6.65;;;8.60;77.30;;;;;;5048159;28;20045;-79
2021/03/26 02:31:26;;;;;;;17.92;7.72;;;8.80;75.90;;;;;;5044187;28;20068;-79
2021/03/26 02:33:53;;;;;;;16.98;7.53;;;8.80;75.30;;;;;;5046657;28;20060;-79
2021/03/26 02:36:40;;;;;;;17.08;7.93;;;8.40;76.20;;;;;;5033515;28;20037;-79
2021/03/26 02:39:15;;;;;;;15.20;7.32;;;8.30;78.00;;;;;;5049230;28;20461;-79
2021/03/26 02:41:45;;;;;;;19.10;7.70;;;8.50;77.60;;;;;;5045518;28;20465;-79
2021/03/26 02:44:52;;;;;;;16.05;7.95;;;8.10;78.70;;;;;;5039335;28;20058;-80
2021/03/26 02:47:30;;;;;;;18.70;8.15;;;7.90;80.90;;;;;;5047588;28;20052;-78
2021/03/26 02:50:06;;;;;;;15.88;7.80;;;8.20;80.30;;;;;;5041626;28;20556;-79
2021/03/26 02:52:50;;;;;;;19.02;7.95;;;8.30;79.30;;;;;;5039150;28;20046;-79
2021/03/26 02:55:28;;;;;;;19.20;8.18;;;8.10;80.40;;;;;;5048606;28;20067;-80
2021/03/26 02:58:03;;;;;;;15.88;8.57;;;8.00;82.10;;;;;;5041512;28;20418;-80
2021/03/26 03:00:37;;;;;;;18.33;7.60;;;7.90;82.40;;;;;;5044577;28;20487;-80
2021/03/26 03:03:07;;;;;;;15.63;7.60;;;8.20;81.90;;;;;;5045088;28;20053;-79
2021/03/26 03:05:45;;;;;;;16.52;7.97;;;8.40;80.80;;;;;;5042420;28;20060;-79
2021/03/26 03:08:24;;;;;;;16.33;9.00;;;8.40;80.20;;;;;;5077375;28;20139;-80
2021/03/26 03:10:52;;;;;;;16.52;8.30;;;8.30;80.40;;;;;;5046061;28;20091;-80
2021/03/26 03:13:57;;;;;;;19.27;8.30;;;8.30;80.60;;;;;;5036843;28;20438;-80
2021/03/26 03:16:41;;;;;;;15.70;8.68;;;8.20;81.70;;;;;;5037298;28;20081;-81
2021/03/26 03:19:46;;;;;;;19.10;9.00;;;8.30;81.50;;;;;;5045493;28;20628;-79
2021/03/26 03:22:35;;;;;;;19.45;8.95;;;8.10;82.10;;;;;;5044359;28;20060;-80
2021/03/26 03:25:09;;;;;;;16.52;8.25;;;8.20;82.50;;;;;;5035145;28;20045;-79
2021/03/26 03:27:44;;;;;;;19.52;9.10;;;8.30;82.20;;;;;;5052189;28;20055;-81
2021/03/26 03:30:13;;;;;;;21.83;9.93;;;8.40;82.20;;;;;;5042592;28;20560;-79
2021/03/26 03:33:02;;;;;;;23.90;9.80;;;8.20;83.30;;;;;;5036870;28;20389;-80
2021/03/26 03:36:00;;;;;;;16.05;9.32;;;8.30;83.00;;;;;;5046106;28;20045;-79
2021/03/26 03:38:50;;;;;;;20.15;9.82;;;7.90;85.70;;;;;;5043115;28;20053;-79
2021/03/26 03:41:40;;;;;;;20.73;9.63;;;7.80;87.50;;;;;;5037345;28;20114;-79
2021/03/26 03:44:23;;;;;;;19.58;9.00;;;7.90;88.20;;;;;;5046161;28;20400;-80
2021/03/26 03:47:01;;;;;;;20.77;9.30;;;8.00;88.30;;;;;;5043925;28;20052;-79
2021/03/26 03:49:30;;;;;;;17.67;8.48;;;8.20;87.00;;;;;;5042968;28;20036;-80
2021/03/26 03:52:13;;;;;;;19.98;8.82;;;8.10;88.00;;;;;;5037077;28;20481;-79
2021/03/26 03:54:50;;;;;;;16.60;8.57;;;8.20;87.80;;;;;;5076162;28;20045;-79
2021/03/26 03:57:23;;;;;;;21.92;8.32;;;8.20;87.80;;;;;;5046929;28;20342;-80
2021/03/26 04:00:19;;;;;;;18.90;8.85;;;8.20;88.00;;;;;;5045971;28;20164;-79
2021/03/26 04:02:58;;;;;;;15.60;9.13;;;8.10;88.70;;;;;;5037152;28;20056;-81
2021/03/26 04:05:35;;;;;;;18.17;8.43;;;8.10;89.40;;;;;;5048517;28;20067;-80
2021/03/26 04:08:19;;;;;;;19.27;9.23;;;7.90;90.60;;;;;;5038145;28;20080;-81
2021/03/26 04:11:00;;;;;;;20.30;9.15;;;8.10;90.20;;;;;;5040652;28;20121;-80
2021/03/26 04:13:36;;;;;;;18.42;9.52;;;8.20;90.10;;;;;;5042772;28;20118;-81
2021/03/26 04:16:04;;;;;;;17.13;9.15;;;8.20;90.20;;;;;;5042852;28;20118;-81
2021/03/26 04:18:39;;;;;;;19.73;9.68;;;8.20;90.40;;;;;;5045350;28;20048;-81
2021/03/26 04:21:06;;;;;;;21.33;10.13;;;8.00;91.20;;;;;;5047542;28;20107;-81
2021/03/26 04:23:40;;;;;;;22.08;9.82;;;7.90;92.00;;;;;;5042238;28;20054;-78
2021/03/26 04:26:28;;;;;;;19.15;9.32;;;8.00;91.80;;;;;;5076164;28;20103;-82
2021/03/26 04:29:08;;;;;;;21.00;9.43;;;8.20;91.40;;;;;;5041714;28;20049;-81
2021/03/26 04:31:42;;;;;;;16.40;10.02;;;8.20;91.40;;;;;;5043796;28;20136;-81
2021/03/26 04:34:10;;;;;;;18.88;10.00;;;8.10;91.90;;;;;;5040125;28;20045;-81
2021/03/26 04:36:48;;;;;;;16.55;9.27;;;8.10;91.90;;;;;;5045216;28;20105;-82
2021/03/26 04:39:25;;;;;;;19.42;9.93;;;7.90;93.10;;;;;;5041294;28;20107;-81
2021/03/26 04:42:16;;;;;;;22.15;9.80;;;7.70;94.50;;;;;;5039159;28;20053;-81
2021/03/26 04:44:53;;;;;;;;;;;7.80;95.00;;;;;;5039890;28;20049;-81
2021/03/26 04:47:26;;;;;;;22.63;10.48;;;7.90;94.20;;;;;;5039890;28;19920;-81
2021/03/26 04:50:05;;;;;;;18.42;9.93;;;7.90;94.20;;;;;;5033277;28;20048;-78
2021/03/26 04:52:47;;;;;;;20.70;11.25;;;7.70;94.90;;;;;;5042567;28;20045;-81
2021/03/26 04:55:26;;;;;;;23.30;10.88;;;7.70;96.30;;;;;;5042622;28;20045;-81
2021/03/26 04:58:02;;;;;;;21.75;11.07;;;7.70;96.50;;;;;;5043679;28;20095;-78
2021/03/26 05:00:41;;;;;;;21.67;10.10;;;7.70;97.00;;;;;;5038531;28;20040;-80
2021/03/26 05:03:25;;;;;;;19.23;10.55;;;7.80;97.20;;;;;;5041730;28;20094;-79
2021/03/26 05:06:20;;;;;;;20.83;9.77;;;7.70;97.20;;;;;;5043217;28;20057;-80
2021/03/26 05:08:58;;;;;;;23.45;10.85;;;7.90;96.70;;;;;;5036073;28;20037;-80
2021/03/26 05:11:29;;;;;;;24.88;11.32;;;7.80;97.30;;;;;;5043089;28;20032;-80
2021/03/26 05:14:05;;;;;;;18.30;10.13;;;7.80;97.90;;;;;;5043199;28;20080;-80
2021/03/26 05:16:43;;;;;;;26.75;11.40;;;7.70;98.50;;;;;;5045869;28;20069;-80
2021/03/26 05:19:43;;;;;;;24.30;11.90;;;7.80;97.90;;;;;;5057282;28;20132;-79
2021/03/26 05:22:25;;;;;;;25.05;12.43;;;7.70;98.60;;;;;;5062892;28;20677;-81
2021/03/26 05:24:59;;;;;;;19.30;11.27;;;7.70;98.90;;;;;;5039016;28;20049;-80
2021/03/26 05:27:25;;;;;;;22.52;12.48;;;7.80;98.90;;;;;;5036661;28;20044;-81
2021/03/26 05:29:52;;;;;;;23.58;12.07;;;7.70;99.00;;;;;;5041887;28;20041;-80
2021/03/26 05:32:31;;;;;;;25.58;12.55;;;7.80;99.00;;;;;;5038781;28;20071;-79
2021/03/26 05:35:10;;;;;;;23.58;12.77;;;8.00;98.10;;;;;;5038147;28;20061;-80
2021/03/26 05:37:53;;;;;;;24.30;12.57;;;7.90;98.20;;;;;;5044954;28;20053;-79
2021/03/26 05:40:46;;;;;;;25.90;12.23;;;7.90;98.40;;;;;;5041635;28;20053;-79
2021/03/26 05:43:37;;;;;;;23.77;11.98;;;8.10;97.90;;;;;;5042185;28;20057;-80
2021/03/26 05:46:12;;;;;;;26.90;12.48;;;8.20;97.10;;;;;;5044241;28;20068;-80
2021/03/26 05:49:01;;;;;;;25.00;13.05;;;8.10;97.20;;;;;;5077110;28;20071;-80
2021/03/26 05:51:52;;;;;;;26.52;11.75;;;8.40;96.60;;;;;;5036517;28;20087;-79
2021/03/26 05:55:03;;;;;;;24.42;12.25;;;8.40;95.80;;;;;;5046615;28;20465;-78
2021/03/26 05:57:35;;;;;;;23.80;12.13;;;8.40;96.20;;;;;;5043013;28;20107;-76
2021/03/26 06:00:01;;;;;;;24.40;12.13;;;8.60;95.20;;;;;;5045523;28;20419;-79
2021/03/26 06:02:54;;;;;;;22.77;11.93;;;8.70;95.00;;;;;;5043370;28;20052;-80
2021/03/26 06:05:58;;;;;;;19.17;11.43;;;8.60;95.00;;;;;;5043578;28;20087;-79
2021/03/26 06:09:02;;;;;;;21.23;11.85;;;8.60;95.10;;;;;;5046037;28;20052;-80
2021/03/26 06:11:50;;;;;;;30.77;13.15;;;8.60;95.30;;;;;;5047244;28;20451;-77
2021/03/26 06:14:34;;;;;;;21.05;11.75;;;8.50;95.20;;;;;;5038759;28;20049;-79
2021/03/26 06:17:38;;;;;;;27.15;12.38;;;8.60;95.30;;;;;;5044001;28;20061;-80
2021/03/26 06:20:37;;;;;;;25.40;12.15;;;8.60;95.40;;;;;;5047254;28;20151;-80
2021/03/26 06:23:15;;;;;;;22.85;11.98;;;8.60;95.50;;;;;;5044995;28;20107;-80
2021/03/26 06:26:10;;;;;;;26.65;11.65;;;8.70;94.80;;;;;;5034128;28;20504;-79
2021/03/26 06:28:55;;;;;;;25.17;12.00;;;9.00;94.20;;;;;;5045616;28;20099;-80
2021/03/26 06:31:36;;;;;;;18.52;10.52;;;9.10;93.50;;;;;;5040006;28;20049;-80
2021/03/26 06:34:38;;;;;;;28.48;11.75;;;9.20;92.90;;;;;;5044002;28;20085;-80
2021/03/26 06:37:27;;;;;;;20.02;11.15;;;9.40;92.50;;;;;;5044744;28;20506;-80
2021/03/26 06:40:22;;;;;;;22.67;10.38;;;9.70;91.50;;;;;;5044618;28;20075;-80
2021/03/26 06:43:18;;;;;;;22.67;10.40;;;10.00;90.00;;;;;;5045997;28;20399;-80
2021/03/26 06:46:06;;;;;;;21.23;9.88;;;10.10;87.90;;;;;;5045475;28;20498;-76
2021/03/26 06:48:57;;;;;;;22.35;10.52;;;10.40;87.30;;;;;;5041427;28;20052;-76
2021/03/26 06:51:39;;;;;;;23.02;10.05;;;10.80;85.10;;;;;;5056637;28;20100;-77
2021/03/26 06:54:33;;;;;;;21.27;10.82;;;11.70;81.10;;;;;;5042998;28;20072;-77
2021/03/26 06:57:11;;;;;;;21.98;10.68;;;11.50;78.70;;;;;;5039191;28;20100;-75
2021/03/26 06:59:53;;;;;;;29.10;12.75;;;11.40;79.80;;;;;;5041578;28;20150;-75
2021/03/26 07:02:34;;;;;;;17.17;10.25;;;11.30;79.30;;;;;;5042083;28;20568;-75
2021/03/26 07:05:13;;;;;;;23.88;11.32;;;11.30;79.30;;;;;;5041471;28;20055;-77
2021/03/26 07:08:00;;;;;;;21.52;11.23;;;12.10;77.20;;;;;;5049235;28;20079;-75
2021/03/26 07:10:49;;;;;;;24.38;10.38;;;12.10;75.70;;;;;;5041953;28;20670;-75
2021/03/26 07:13:21;;;;;;;25.60;10.95;;;12.20;74.80;;;;;;5052439;28;20119;-75
2021/03/26 07:16:03;;;;;;;18.73;10.27;;;13.10;72.60;;;;;;5057941;28;20424;-75
2021/03/26 07:19:27;;;;;;;18.65;9.27;;;13.00;70.70;;;;;;5057899;28;20072;-76
2021/03/26 07:22:11;;;;;;;16.45;8.88;;;13.00;70.10;;;;;;5024972;28;20119;-76
2021/03/26 07:24:59;;;;;;;17.77;9.70;;;12.40;71.10;;;;;;5010675;28;20056;-76
2021/03/26 07:27:54;;;;;;;19.15;8.90;;;12.00;72.30;;;;;;5028628;28;20052;-75
2021/03/26 07:30:42;;;;;;;16.27;8.63;;;12.40;72.00;;;;;;5045587;28;20045;-74
2021/03/26 07:33:21;;;;;;;21.67;8.65;;;12.80;70.10;;;;;;5041478;28;20542;-75
2021/03/26 07:36:18;;;;;;;17.25;8.80;;;12.70;70.10;;;;;;5036911;28;20485;-75
2021/03/26 07:39:07;;;;;;;21.15;9.25;;;12.50;70.20;;;;;;5036558;28;20364;-74
2021/03/26 07:41:48;;;;;;;18.52;9.88;;;12.40;69.80;;;;;;5041915;28;20057;-76
2021/03/26 07:44:39;;;;;;;18.80;9.43;;;11.80;72.00;;;;;;5033049;28;20045;-75
2021/03/26 07:47:37;;;;;;;21.48;9.90;;;11.50;73.10;;;;;;5049118;28;20053;-77
2021/03/26 07:50:23;;;;;;;19.42;9.75;;;12.10;72.30;;;;;;5047451;28;20056;-79
2021/03/26 07:52:55;;;;;;;18.92;9.60;;;13.10;68.90;;;;;;5040804;28;20404;-77
2021/03/26 07:55:49;;;;;;;17.25;9.23;;;13.20;67.60;;;;;;5038400;28;20119;-77
2021/03/26 07:58:43;;;;;;;15.48;9.40;;;13.60;66.10;;;;;;5043500;28;20098;-77
2021/03/26 08:01:18;;;;;;;18.58;9.18;;;14.00;64.60;;;;;;5041967;28;20427;-77
2021/03/26 08:03:56;;;;;;;17.70;8.93;;;14.30;64.30;;;;;;5038223;28;20141;-77
2021/03/26 08:06:42;;;;;;;15.45;9.27;;;14.80;62.60;;;;;;5049148;28;20049;-76
2021/03/26 08:09:14;;;;;;;18.80;8.63;;;14.70;62.50;;;;;;5045169;28;20045;-76
2021/03/26 08:12:08;;;;;;;19.88;9.52;;;14.70;61.40;;;;;;5039983;28;20463;-77
2021/03/26 08:15:05;;;;;;;19.05;8.85;;;13.90;63.00;;;;;;5034938;28;20099;-77
2021/03/26 08:18:24;;;;;;;17.17;9.30;;;14.50;63.30;;;;;;5076700;28;20496;-77
2021/03/26 08:21:11;;;;;;;18.20;8.80;;;14.80;61.00;;;;;;5020148;28;20076;-77
2021/03/26 08:23:57;;;;;;;19.70;8.93;;;14.00;62.50;;;;;;5040493;28;20471;-77
2021/03/26 08:27:15;;;;;;;14.95;8.30;;;13.70;63.50;;;;;;5045617;28;20045;-77
2021/03/26 08:30:07;;;;;;;15.60;8.00;;;13.80;63.60;;;;;;5035975;28;20102;-78
2021/03/26 08:32:55;;;;;;;17.45;8.20;;;14.40;61.80;;;;;;5026474;28;20065;-78
2021/03/26 08:35:56;;;;;;;15.43;7.95;;;14.70;61.20;;;;;;5046889;28;20053;-77
2021/03/26 08:38:44;;;;;;;13.57;7.28;;;14.40;61.30;;;;;;5079078;28;20064;-77
2021/03/26 08:41:36;;;;;;;18.23;7.90;;;15.80;59.00;;;;;;5041861;28;20436;-77
2021/03/26 08:44:03;;;;;;;20.92;8.32;;;16.40;58.60;;;;;;5043654;28;20499;-77
2021/03/26 08:46:43;;;;;;;15.50;7.45;;;16.80;56.00;;;;;;5042914;28;20127;-77
2021/03/26 08:49:22;;;;;;;14.80;7.75;;;17.70;54.70;;;;;;5078433;28;20045;-76
2021/03/26 08:52:01;;;;;;;14.27;7.90;;;17.80;53.80;;;;;;5043625;28;20103;-76
2021/03/26 08:54:41;;;;;;;15.32;8.20;;;15.90;55.60;;;;;;5043499;28;20445;-77
2021/03/26 08:57:32;;;;;;;16.35;8.13;;;15.00;58.10;;;;;;5046882;28;20041;-76
2021/03/26 09:00:24;;;;;;;16.60;8.30;;;15.40;57.70;;;;;;5046812;28;20099;-76
2021/03/26 09:03:46;;;;;;;14.75;8.10;;;15.70;56.80;;;;;;5036066;28;20042;-75
2021/03/26 09:06:34;;;;;;;13.38;7.53;;;16.30;55.20;;;;;;5031912;28;20056;-75
2021/03/26 09:09:16;;;;;;;17.58;8.23;;;16.00;55.30;;;;;;5037518;28;20468;-75
2021/03/26 09:12:04;;;;;;;18.15;8.68;;;15.40;56.40;;;;;;5036278;28;20042;-75
2021/03/26 09:14:54;;;;;;;14.63;7.82;;;15.30;57.70;;;;;;5043525;28;20488;-78
2021/03/26 09:17:23;;;;;;;;;;;14.90;57.60;;;;;;5050071;28;20084;-76
2021/03/26 09:20:21;;;;;;;15.38;7.50;;;15.30;57.80;;;;;;5043049;28;19921;-77
2021/03/26 09:23:04;;;;;;;14.27;8.23;;;15.20;56.20;;;;;;5044157;28;20137;-76
2021/03/26 09:25:47;;;;;;;20.95;7.55;;;14.50;58.60;;;;;;5047466;28;20131;-74
2021/03/26 09:28:36;;;;;;;16.95;7.28;;;16.30;56.80;;;;;;5044133;28;20116;-76
2021/03/26 09:31:07;;;;;;;15.57;7.88;;;17.30;54.40;;;;;;5043503;28;20145;-76
2021/03/26 09:33:37;;;;;;;16.15;7.60;;;17.90;52.80;;;;;;5045720;28;20053;-76
2021/03/26 09:36:26;;;;;;;17.67;7.80;;;17.30;52.90;;;;;;5047288;28;20667;-75
2021/03/26 09:39:19;;;;;;;17.65;8.55;;;17.30;52.70;;;;;;5049113;28;20056;-76
2021/03/26 09:42:04;;;;;;;12.85;8.02;;;17.60;53.30;;;;;;5046566;28;20067;-76
2021/03/26 09:44:36;;;;;;;16.77;8.10;;;16.90;52.90;;;;;;5033626;28;20207;-76
2021/03/26 09:47:16;;;;;;;12.60;7.28;;;18.70;51.80;;;;;;5048874;28;20065;-76
2021/03/26 09:49:52;;;;;;;15.48;7.97;;;19.50;49.10;;;;;;5047798;28;20075;-76
2021/03/26 09:52:45;;;;;;;11.63;7.82;;;20.20;48.00;;;;;;5045047;28;20063;-75
2021/03/26 09:55:32;;;;;;;17.75;8.32;;;19.60;48.40;;;;;;5040096;28;20057;-75
2021/03/26 09:58:20;;;;;;;18.80;8.98;;;18.80;48.50;;;;;;5049415;28;20422;-74
2021/03/26 10:01:09;;;;;;;12.75;8.35;;;16.90;51.90;;;;;;5047535;28;20049;-72
2021/03/26 10:04:04;;;;;;;16.50;8.30;;;17.00;53.10;;;;;;5047972;28;20057;-75
2021/03/26 10:07:15;;;;;;;14.45;8.27;;;18.20;51.70;;;;;;5047551;28;20048;-74
2021/03/26 10:09:46;;;;;;;16.30;8.35;;;19.80;47.90;;;;;;5048696;28;20057;-73
2021/03/26 10:12:16;;;;;;;15.63;8.45;;;20.30;46.40;;;;;;5047854;28;20503;-75
2021/03/26 10:15:02;;;;;;;20.60;8.67;;;19.70;47.40;;;;;;5045850;28;20041;-74
2021/03/26 10:17:35;;;;;;;18.23;8.85;;;18.70;48.40;;;;;;5044909;28;20044;-71
2021/03/26 10:20:27;;;;;;;19.23;8.73;;;17.20;50.10;;;;;;5047325;28;20164;-73
2021/03/26 10:23:21;;;;;;;18.85;8.93;;;16.70;52.60;;;;;;5049777;28;20061;-74
2021/03/26 10:26:03;;;;;;;17.65;9.07;;;16.60;52.90;;;;;;5046322;28;20052;-74
2021/03/26 10:28:33;;;;;;;21.35;9.27;;;16.70;52.70;;;;;;5046831;28;20463;-74
2021/03/26 10:31:27;;;;;;;16.75;8.40;;;17.60;51.40;;;;;;5047314;28;20057;-72
2021/03/26 10:33:57;;;;;;;20.23;9.13;;;16.70;51.60;;;;;;5040902;28;20064;-72
2021/03/26 10:36:33;;;;;;;18.63;9.02;;;17.30;51.70;;;;;;5042442;28;20119;-72
2021/03/26 10:39:06;;;;;;;20.30;8.60;;;18.30;49.60;;;;;;5047441;28;20056;-73
2021/03/26 10:41:49;;;;;;;21.00;9.23;;;18.20;49.70;;;;;;5043510;28;20044;-73
2021/03/26 10:44:34;;;;;;;14.75;8.63;;;17.30;51.00;;;;;;5047378;28;20102;-72
2021/03/26 10:47:07;;;;;;;15.75;8.07;;;17.10;51.30;;;;;;5045593;28;20597;-73
2021/03/26 10:49:50;;;;;;;16.92;8.57;;;17.30;51.10;;;;;;5046442;28;20773;-73
2021/03/26 10:52:35;;;;;;;18.13;7.63;;;17.40;51.30;;;;;;5045891;28;20049;-73
2021/03/26 10:55:11;;;;;;;16.35;7.90;;;17.40;50.60;;;;;;5041561;28;20511;-74
2021/03/26 10:57:39;;;;;;;16.08;8.38;;;17.00;50.10;;;;;;5046034;28;20145;-73
2021/03/26 11:00:18;;;;;;;20.75;9.52;;;17.00;51.00;;;;;;5046659;28;20484;-72
2021/03/26 11:02:59;;;;;;;18.67;8.10;;;17.40;50.50;;;;;;5047093;28;20488;-73
2021/03/26 11:05:46;;;;;;;13.05;7.53;;;17.40;50.10;;;;;;5048821;28;20053;-74
2021/03/26 11:08:28;;;;;;;14.98;7.50;;;16.80;49.70;;;;;;5046293;28;20057;-72
2021/03/26 11:11:10;;;;;;;15.35;7.00;;;17.40;49.30;;;;;;5048799;28;20103;-74
2021/03/26 11:13:53;;;;;;;13.57;7.40;;;17.80;49.40;;;;;;5051302;28;20052;-73
2021/03/26 11:16:43;;;;;;;14.07;8.35;;;18.50;47.50;;;;;;5047607;28;20130;-72
2021/03/26 11:19:35;;;;;;;14.77;7.20;;;18.80;47.50;;;;;;5046932;28;20055;-73
2021/03/26 11:22:27;;;;;;;13.25;7.25;;;18.70;47.50;;;;;;5049820;28;20134;-73
2021/03/26 11:25:08;;;;;;;14.02;7.78;;;19.00;47.00;;;;;;5044002;28;20086;-72
2021/03/26 11:27:56;;;;;;;13.82;6.68;;;18.40;47.50;;;;;;5040324;28;20118;-72
2021/03/26 11:30:42;;;;;;;14.20;6.50;;;18.30;47.00;;;;;;5046811;28;20048;-72
2021/03/26 11:33:38;;;;;;;19.52;7.35;;;19.30;46.40;;;;;;5046559;28;20562;-73
2021/03/26 11:36:34;;;;;;;8.32;4.97;;;20.60;45.50;;;;;;5046927;28;20060;-72
2021/03/26 11:39:06;;;;;;;13.05;6.30;;;20.00;42.70;;;;;;5047240;28;20418;-73
2021/03/26 11:41:40;;;;;;;9.32;6.93;;;20.80;42.10;;;;;;5041681;28;20057;-72
2021/03/26 11:44:09;;;;;;;13.98;6.95;;;20.70;42.70;;;;;;5049444;28;20614;-73
2021/03/26 11:46:41;;;;;;;13.73;6.10;;;22.20;41.60;;;;;;5048240;28;20545;-73
2021/03/26 11:49:14;;;;;;;9.95;6.50;;;20.80;41.70;;;;;;5049543;28;20063;-72
2021/03/26 11:52:03;;;;;;;11.00;5.45;;;24.30;38.50;;;;;;5048993;28;20056;-73
2021/03/26 11:54:47;;;;;;;14.07;6.05;;;23.50;37.40;;;;;;5046485;28;20079;-73
2021/03/26 11:57:38;;;;;;;10.27;5.68;;;21.20;40.20;;;;;;5047082;28;20053;-73
2021/03/26 12:00:22;;;;;;;9.18;5.60;;;22.80;39.70;;;;;;5047610;28;20053;-73
2021/03/26 12:03:10;;;;;;;9.35;5.75;;;22.20;40.10;;;;;;5040456;28;21449;-73
2021/03/26 12:06:00;;;;;;;13.20;6.60;;;22.00;40.50;;;;;;5045473;28;20055;-73
2021/03/26 12:08:39;;;;;;;14.80;6.47;;;21.20;40.90;;;;;;5042452;28;20161;-72
2021/03/26 12:11:08;;;;;;;11.93;7.18;;;20.40;42.60;;;;;;5042793;28;20077;-72
2021/03/26 12:13:44;;;;;;;12.55;6.05;;;20.40;43.20;;;;;;5047343;28;20055;-73
2021/03/26 12:16:35;;;;;;;11.50;5.93;;;20.20;43.30;;;;;;5045713;28;20068;-73
2021/03/26 12:19:17;;;;;;;11.10;6.50;;;20.10;43.40;;;;;;5045656;28;20048;-73
2021/03/26 12:21:54;;;;;;;12.13;6.93;;;19.70;44.00;;;;;;5074949;28;20044;-76
2021/03/26 12:24:35;;;;;;;16.02;6.68;;;19.80;43.20;;;;;;5045551;28;20036;-75
2021/03/26 12:27:29;;;;;;;10.77;6.05;;;19.10;43.70;;;;;;5043547;28;20045;-75
2021/03/26 12:30:03;;;;;;;11.65;6.28;;;18.90;44.40;;;;;;5046759;28;20067;-76
2021/03/26 12:32:38;;;;;;;12.00;6.82;;;20.00;43.70;;;;;;5041217;28;20444;-76
2021/03/26 12:35:15;;;;;;;12.25;7.03;;;19.90;42.60;;;;;;5045559;28;20057;-70
2021/03/26 12:38:12;;;;;;;15.10;7.25;;;19.90;43.40;;;;;;5046816;28;20049;-75
2021/03/26 12:40:55;;;;;;;12.73;7.15;;;20.40;42.60;;;;;;5043999;28;20060;-79
2021/03/26 12:43:22;;;;;;;8.85;5.90;;;20.90;41.80;;;;;;5047787;28;20043;-76
2021/03/26 12:46:08;;;;;;;12.60;6.35;;;22.20;41.50;;;;;;5045622;28;20041;-77
2021/03/26 12:48:50;;;;;;;12.25;5.88;;;22.40;41.30;;;;;;5047799;28;20135;-77
2021/03/26 12:51:23;;;;;;;14.00;6.90;;;22.80;40.80;;;;;;5049047;28;20045;-76
2021/03/26 12:54:22;;;;;;;16.38;6.97;;;21.60;40.00;;;;;;5045903;28;20484;-77
2021/03/26 12:57:01;;;;;;;14.65;5.88;;;22.60;39.70;;;;;;5044419;28;20107;-75
2021/03/26 13:00:05;;;;;;;15.23;6.28;;;23.70;41.00;;;;;;5045574;28;20130;-77
2021/03/26 13:02:41;;;;;;;10.98;6.10;;;23.00;39.10;;;;;;5044364;28;20499;-77
2021/03/26 13:05:29;;;;;;;11.40;5.97;;;23.50;38.30;;;;;;5046865;28;20091;-77
2021/03/26 13:08:17;;;;;;;14.68;6.80;;;23.70;38.20;;;;;;5045579;28;20068;-77
2021/03/26 13:10:54;;;;;;;14.75;7.22;;;22.50;39.60;;;;;;5045546;28;20064;-77
2021/03/26 13:13:58;;;;;;;14.02;7.25;;;22.90;38.90;;;;;;5045200;28;20049;-78
2021/03/26 13:16:37;;;;;;;30.50;14.82;;;25.00;37.40;;;;;;5048333;28;20041;-78
2021/03/26 13:19:20;;;;;;;12.23;5.45;;;25.50;37.40;;;;;;5046348;28;20060;-79
2021/03/26 13:22:07;;;;;;;50.88;20.35;;;23.90;36.20;;;;;;5049182;28;20155;-80
2021/03/26 13:25:05;;;;;;;10.13;5.30;;;24.90;37.50;;;;;;5045411;28;20067;-78
2021/03/26 13:27:40;;;;;;;37.13;14.98;;;22.80;36.60;;;;;;5044805;28;20057;-78
2021/03/26 13:30:16;;;;;;;12.43;6.25;;;22.00;38.70;;;;;;5043573;28;20133;-79
2021/03/26 13:32:42;;;;;;;13.80;6.70;;;22.60;38.50;;;;;;5047941;28;20045;-77
2021/03/26 13:35:18;;;;;;;23.88;11.15;;;21.60;39.40;;;;;;5044235;28;20103;-75
2021/03/26 13:37:48;;;;;;;13.40;7.22;;;21.50;40.20;;;;;;5048822;28;20465;-76
2021/03/26 13:40:24;;;;;;;15.52;7.40;;;21.40;40.30;;;;;;5040263;28;20061;-76
2021/03/26 13:43:02;;;;;;;15.70;7.40;;;21.10;40.80;;;;;;5029077;28;20530;-76
2021/03/26 13:45:31;;;;;;;30.98;12.48;;;20.70;40.70;;;;;;5040932;28;20488;-73
2021/03/26 13:48:09;;;;;;;13.15;6.82;;;22.00;40.70;;;;;;5044679;28;20107;-73